createdAt,value
2022-10-10T00:03:08.138Z,1007.457
2022-10-10T00:23:07.915Z,1007.25
2022-10-10T00:43:07.761Z,1007.125
2022-10-10T01:03:08.627Z,1006.93
2022-10-10T01:23:07.683Z,1006.932
2022-10-10T01:43:07.468Z,1006.812
2022-10-10T02:03:08.227Z,1006.629
2022-10-10T02:23:08.072Z,1006.466
2022-10-10T02:43:07.872Z,1006.436
2022-10-10T03:03:08.538Z,1006.331
2022-10-10T03:23:07.379Z,1006.12
2022-10-10T03:43:08.138Z,1006.043
2022-10-10T04:03:08.826Z,1005.872
2022-10-10T04:23:07.620Z,1005.791
2022-10-10T04:43:07.712Z,1005.629
2022-10-10T05:03:08.531Z,1005.591
2022-10-10T05:23:07.332Z,1005.527
2022-10-10T05:43:07.442Z,1005.54
2022-10-10T06:03:08.211Z,1005.53
2022-10-10T06:23:08.130Z,1005.596
2022-10-10T06:43:08.083Z,1005.645
2022-10-10T07:03:08.939Z,1005.706
2022-10-10T07:23:07.901Z,1005.513
2022-10-10T07:43:07.870Z,1005.646
2022-10-10T08:03:12.984Z,1005.622
2022-10-10T08:23:07.834Z,1005.442
2022-10-10T08:43:07.770Z,1005.406
2022-10-10T09:03:08.676Z,1005.595
2022-10-10T09:23:07.612Z,1005.468
2022-10-10T09:43:11.402Z,1005.59
2022-10-10T10:03:08.408Z,1005.637
2022-10-10T10:23:07.275Z,1005.714
2022-10-10T10:43:07.133Z,1005.849
2022-10-10T11:05:32.768Z,1005.789
2022-10-10T11:23:10.182Z,1005.836
2022-10-10T11:43:08.187Z,1005.661
2022-10-10T12:03:09.182Z,1005.706
2022-10-10T12:23:08.035Z,1005.581
2022-10-10T12:43:07.966Z,1005.508
2022-10-10T13:03:08.924Z,1005.562
2022-10-10T13:23:07.875Z,1005.627
2022-10-10T13:43:08.156Z,1005.655
2022-10-10T14:03:09.043Z,1005.687
2022-10-10T14:23:07.904Z,1005.913
2022-10-10T14:43:07.869Z,1005.969
2022-10-10T15:03:09.169Z,1006.104
2022-10-10T15:23:07.938Z,1006.35
2022-10-10T15:43:07.936Z,1006.689
2022-10-10T16:03:08.907Z,1006.995
2022-10-10T16:23:07.706Z,1007.212
2022-10-10T16:43:07.872Z,1007.705
2022-10-10T17:03:08.728Z,1008.247
2022-10-10T17:23:07.629Z,1008.727
2022-10-10T17:43:07.617Z,1009.071
2022-10-10T18:03:10.018Z,1009.514
2022-10-10T18:23:07.874Z,1009.875
2022-10-10T18:43:08.029Z,1010.363
2022-10-10T19:03:08.859Z,1010.566
2022-10-10T19:23:07.591Z,1010.946
2022-10-10T19:43:07.596Z,1011.245
2022-10-10T20:03:08.569Z,1011.65
2022-10-10T20:23:07.385Z,1012.035
2022-10-10T20:43:07.414Z,1012.363
2022-10-10T21:03:08.423Z,1012.673
2022-10-10T21:23:07.291Z,1012.974
2022-10-10T21:43:07.370Z,1013.177
2022-10-10T22:03:08.543Z,1013.402
2022-10-10T22:23:07.176Z,1013.563
2022-10-10T22:43:07.862Z,1013.62
2022-10-10T23:03:08.591Z,1013.722
2022-10-10T23:23:07.324Z,1013.815
2022-10-10T23:43:07.930Z,1013.917
